sensor_id;sensor_type;location;lat;lon;timestamp;pressure;altitude;pressure_sealevel;temperature;humidity
21111;BME280;10713;51.912;4.494;2023-03-31T00:02:01;100247.38;;;11.56;100.00
21111;BME280;10713;51.912;4.494;2023-03-31T00:04:27;100245.47;;;11.59;100.00
21111;BME280;10713;51.912;4.494;2023-03-31T00:06:56;100245.13;;;11.65;100.00
21111;BME280;10713;51.912;4.494;2023-03-31T00:09:21;100236.00;;;11.71;100.00
21111;BME280;10713;51.912;4.494;2023-03-31T00:11:50;100226.63;;;11.65;100.00
21111;BME280;10713;51.912;4.494;2023-03-31T00:14:17;100219.97;;;11.74;100.00
21111;BME280;10713;51.912;4.494;2023-03-31T00:16:44;100216.16;;;11.80;100.00
21111;BME280;10713;51.912;4.494;2023-03-31T00:19:11;100209.25;;;11.77;100.00
21111;BME280;10713;51.912;4.494;2023-03-31T00:21:45;100210.47;;;11.54;100.00
21111;BME280;10713;51.912;4.494;2023-03-31T00:24:11;100207.06;;;11.52;100.00
21111;BME280;10713;51.912;4.494;2023-03-31T00:26:37;100200.88;;;11.69;100.00
21111;BME280;10713;51.912;4.494;2023-03-31T00:29:05;100193.16;;;11.64;100.00
21111;BME280;10713;51.912;4.494;2023-03-31T00:31:31;100184.38;;;11.64;100.00
21111;BME280;10713;51.912;4.494;2023-03-31T00:33:56;100182.69;;;11.63;100.00
21111;BME280;10713;51.912;4.494;2023-03-31T00:36:23;100179.19;;;11.62;100.00
21111;BME280;10713;51.912;4.494;2023-03-31T00:38:59;100182.75;;;11.61;100.00
21111;BME280;10713;51.912;4.494;2023-03-31T00:41:26;100173.97;;;11.61;100.00
21111;BME280;10713;51.912;4.494;2023-03-31T00:44:17;100169.72;;;11.58;100.00
21111;BME280;10713;51.912;4.494;2023-03-31T00:47:05;100164.03;;;11.66;100.00
21111;BME280;10713;51.912;4.494;2023-03-31T00:49:39;100162.31;;;11.81;100.00
21111;BME280;10713;51.912;4.494;2023-03-31T00:52:06;100161.22;;;11.85;100.00
21111;BME280;10713;51.912;4.494;2023-03-31T00:54:34;100148.53;;;12.07;100.00
21111;BME280;10713;51.912;4.494;2023-03-31T00:57:01;100145.44;;;12.15;100.00
21111;BME280;10713;51.912;4.494;2023-03-31T00:59:36;100128.47;;;12.19;100.00
21111;BME280;10713;51.912;4.494;2023-03-31T01:02:03;100133.75;;;12.19;100.00
21111;BME280;10713;51.912;4.494;2023-03-31T01:04:34;100124.78;;;12.22;100.00
21111;BME280;10713;51.912;4.494;2023-03-31T01:07:09;100128.13;;;12.09;100.00
21111;BME280;10713;51.912;4.494;2023-03-31T01:09:43;100116.28;;;12.16;100.00
21111;BME280;10713;51.912;4.494;2023-03-31T01:12:12;100119.75;;;12.17;100.00
21111;BME280;10713;51.912;4.494;2023-03-31T01:14:40;100116.84;;;12.22;100.00
21111;BME280;10713;51.912;4.494;2023-03-31T01:17:05;100100.28;;;12.18;100.00
21111;BME280;10713;51.912;4.494;2023-03-31T01:47:09;100047.84;;;11.79;100.00
21111;BME280;10713;51.912;4.494;2023-03-31T01:49:59;100042.22;;;11.69;100.00
21111;BME280;10713;51.912;4.494;2023-03-31T01:52:57;100040.13;;;11.60;100.00
21111;BME280;10713;51.912;4.494;2023-03-31T01:55:36;100025.78;;;11.64;100.00
21111;BME280;10713;51.912;4.494;2023-03-31T01:58:14;100014.34;;;11.63;100.00
21111;BME280;10713;51.912;4.494;2023-03-31T02:00:46;100009.06;;;11.63;100.00
21111;BME280;10713;51.912;4.494;2023-03-31T02:03:28;100009.16;;;11.62;100.00
21111;BME280;10713;51.912;4.494;2023-03-31T02:05:58;99997.47;;;11.66;100.00
21111;BME280;10713;51.912;4.494;2023-03-31T02:08:29;99976.56;;;11.61;100.00
21111;BME280;10713;51.912;4.494;2023-03-31T02:10:58;99973.06;;;11.77;100.00
21111;BME280;10713;51.912;4.494;2023-03-31T02:13:26;99967.78;;;11.77;100.00
21111;BME280;10713;51.912;4.494;2023-03-31T02:15:59;99948.38;;;11.62;100.00
21111;BME280;10713;51.912;4.494;2023-03-31T02:18:28;99945.09;;;11.72;100.00
21111;BME280;10713;51.912;4.494;2023-03-31T02:20:58;99930.34;;;11.68;100.00
21111;BME280;10713;51.912;4.494;2023-03-31T02:23:27;99935.16;;;11.46;100.00
21111;BME280;10713;51.912;4.494;2023-03-31T02:26:14;99930.06;;;11.43;100.00
21111;BME280;10713;51.912;4.494;2023-03-31T02:28:40;99909.59;;;11.46;100.00
21111;BME280;10713;51.912;4.494;2023-03-31T02:31:28;99904.25;;;11.32;100.00
21111;BME280;10713;51.912;4.494;2023-03-31T02:33:57;99889.28;;;11.01;100.00
21111;BME280;10713;51.912;4.494;2023-03-31T02:36:23;99894.38;;;11.20;100.00
21111;BME280;10713;51.912;4.494;2023-03-31T02:38:56;99870.03;;;11.15;100.00
21111;BME280;10713;51.912;4.494;2023-03-31T02:41:23;99879.13;;;11.25;100.00
21111;BME280;10713;51.912;4.494;2023-03-31T02:43:49;99864.31;;;11.22;100.00
21111;BME280;10713;51.912;4.494;2023-03-31T02:46:14;99867.38;;;11.31;100.00
21111;BME280;10713;51.912;4.494;2023-03-31T02:48:47;99852.56;;;11.12;100.00
21111;BME280;10713;51.912;4.494;2023-03-31T03:02:49;99840.38;;;11.10;100.00
21111;BME280;10713;51.912;4.494;2023-03-31T03:05:52;99821.09;;;11.23;100.00
21111;BME280;10713;51.912;4.494;2023-03-31T03:08:43;99812.63;;;11.33;100.00
21111;BME280;10713;51.912;4.494;2023-03-31T03:11:26;99796.16;;;11.13;100.00
21111;BME280;10713;51.912;4.494;2023-03-31T03:16:38;99795.69;;;10.91;100.00
21111;BME280;10713;51.912;4.494;2023-03-31T03:19:06;99789.16;;;11.12;100.00
21111;BME280;10713;51.912;4.494;2023-03-31T03:21:32;99773.44;;;10.95;100.00
21111;BME280;10713;51.912;4.494;2023-03-31T03:23:58;99768.34;;;10.92;100.00
21111;BME280;10713;51.912;4.494;2023-03-31T03:26:24;99760.97;;;10.82;100.00
21111;BME280;10713;51.912;4.494;2023-03-31T03:28:53;99753.41;;;10.60;100.00
21111;BME280;10713;51.912;4.494;2023-03-31T03:31:19;99755.81;;;10.65;100.00
21111;BME280;10713;51.912;4.494;2023-03-31T03:33:45;99746.94;;;10.66;100.00
21111;BME280;10713;51.912;4.494;2023-03-31T03:36:11;99734.75;;;10.64;100.00
21111;BME280;10713;51.912;4.494;2023-03-31T03:38:36;99726.66;;;10.82;100.00
21111;BME280;10713;51.912;4.494;2023-03-31T03:41:02;99718.66;;;10.98;100.00
21111;BME280;10713;51.912;4.494;2023-03-31T03:43:27;99708.41;;;10.94;100.00
21111;BME280;10713;51.912;4.494;2023-03-31T03:45:53;99690.16;;;10.89;100.00
21111;BME280;10713;51.912;4.494;2023-03-31T03:48:18;99692.22;;;10.84;100.00
21111;BME280;10713;51.912;4.494;2023-03-31T03:50:45;99686.75;;;10.87;100.00
21111;BME280;10713;51.912;4.494;2023-03-31T03:53:10;99684.34;;;10.98;100.00
21111;BME280;10713;51.912;4.494;2023-03-31T03:55:35;99672.75;;;11.01;100.00
21111;BME280;10713;51.912;4.494;2023-03-31T03:58:01;99659.72;;;10.98;100.00
21111;BME280;10713;51.912;4.494;2023-03-31T04:00:26;99652.47;;;11.16;100.00
21111;BME280;10713;51.912;4.494;2023-03-31T04:02:52;99652.38;;;11.03;100.00
21111;BME280;10713;51.912;4.494;2023-03-31T04:05:17;99643.25;;;11.09;100.00
21111;BME280;10713;51.912;4.494;2023-03-31T04:07:42;99655.75;;;10.76;100.00
21111;BME280;10713;51.912;4.494;2023-03-31T04:10:08;99635.13;;;10.97;100.00
21111;BME280;10713;51.912;4.494;2023-03-31T04:12:34;99632.81;;;10.77;100.00
21111;BME280;10713;51.912;4.494;2023-03-31T04:15:00;99625.34;;;10.69;100.00
21111;BME280;10713;51.912;4.494;2023-03-31T04:17:25;99626.88;;;10.73;100.00
21111;BME280;10713;51.912;4.494;2023-03-31T04:19:58;99610.69;;;10.79;100.00
21111;BME280;10713;51.912;4.494;2023-03-31T04:22:27;99592.00;;;10.82;100.00
21111;BME280;10713;51.912;4.494;2023-03-31T04:24:54;99594.34;;;10.87;100.00
21111;BME280;10713;51.912;4.494;2023-03-31T04:27:23;99594.19;;;10.76;100.00
21111;BME280;10713;51.912;4.494;2023-03-31T04:29:52;99588.59;;;10.66;100.00
21111;BME280;10713;51.912;4.494;2023-03-31T04:32:21;99594.91;;;10.78;100.00
21111;BME280;10713;51.912;4.494;2023-03-31T04:34:47;99592.19;;;10.79;100.00
21111;BME280;10713;51.912;4.494;2023-03-31T04:37:15;99592.47;;;10.89;100.00
21111;BME280;10713;51.912;4.494;2023-03-31T04:39:40;99583.97;;;10.84;100.00
21111;BME280;10713;51.912;4.494;2023-03-31T04:42:06;99565.50;;;10.84;100.00
21111;BME280;10713;51.912;4.494;2023-03-31T04:44:31;99569.09;;;10.83;100.00
21111;BME280;10713;51.912;4.494;2023-03-31T04:46:57;99560.34;;;10.82;100.00
21111;BME280;10713;51.912;4.494;2023-03-31T04:49:23;99560.22;;;10.84;100.00
21111;BME280;10713;51.912;4.494;2023-03-31T04:51:48;99546.47;;;10.79;100.00
21111;BME280;10713;51.912;4.494;2023-03-31T04:54:13;99567.03;;;10.88;100.00
21111;BME280;10713;51.912;4.494;2023-03-31T04:56:39;99531.88;;;10.88;100.00
21111;BME280;10713;51.912;4.494;2023-03-31T04:59:04;99524.13;;;10.70;100.00
21111;BME280;10713;51.912;4.494;2023-03-31T05:01:31;99534.41;;;10.75;100.00
21111;BME280;10713;51.912;4.494;2023-03-31T05:03:58;99530.63;;;10.65;100.00
21111;BME280;10713;51.912;4.494;2023-03-31T05:06:23;99522.78;;;10.63;100.00
21111;BME280;10713;51.912;4.494;2023-03-31T05:08:49;99523.16;;;10.57;100.00
21111;BME280;10713;51.912;4.494;2023-03-31T05:11:14;99518.66;;;10.59;100.00
21111;BME280;10713;51.912;4.494;2023-03-31T05:13:40;99516.28;;;10.54;100.00
21111;BME280;10713;51.912;4.494;2023-03-31T05:16:09;99514.13;;;10.61;100.00
21111;BME280;10713;51.912;4.494;2023-03-31T05:18:35;99508.56;;;10.66;100.00
21111;BME280;10713;51.912;4.494;2023-03-31T05:21:21;99515.34;;;10.70;100.00
21111;BME280;10713;51.912;4.494;2023-03-31T05:23:46;99508.31;;;10.70;100.00
21111;BME280;10713;51.912;4.494;2023-03-31T05:26:12;99515.72;;;10.78;100.00
21111;BME280;10713;51.912;4.494;2023-03-31T05:28:38;99497.81;;;10.83;100.00
21111;BME280;10713;51.912;4.494;2023-03-31T05:31:05;99498.41;;;10.74;100.00
21111;BME280;10713;51.912;4.494;2023-03-31T05:33:31;99498.41;;;10.74;100.00
21111;BME280;10713;51.912;4.494;2023-03-31T05:35:57;99485.97;;;10.76;100.00
21111;BME280;10713;51.912;4.494;2023-03-31T05:38:25;99492.75;;;10.80;100.00
21111;BME280;10713;51.912;4.494;2023-03-31T05:40:54;99490.47;;;10.74;100.00
21111;BME280;10713;51.912;4.494;2023-03-31T05:43:19;99485.28;;;10.87;100.00
21111;BME280;10713;51.912;4.494;2023-03-31T05:45:45;99477.94;;;10.92;100.00
21111;BME280;10713;51.912;4.494;2023-03-31T05:48:10;99481.22;;;10.81;100.00
21111;BME280;10713;51.912;4.494;2023-03-31T05:50:36;99477.16;;;10.75;100.00
21111;BME280;10713;51.912;4.494;2023-03-31T05:53:01;99482.94;;;10.82;100.00
21111;BME280;10713;51.912;4.494;2023-03-31T05:55:27;99470.47;;;10.84;100.00
21111;BME280;10713;51.912;4.494;2023-03-31T05:57:52;99474.53;;;10.75;100.00
21111;BME280;10713;51.912;4.494;2023-03-31T06:00:19;99468.13;;;10.79;100.00
21111;BME280;10713;51.912;4.494;2023-03-31T06:02:44;99473.22;;;10.82;100.00
21111;BME280;10713;51.912;4.494;2023-03-31T06:05:10;99463.13;;;10.89;100.00
21111;BME280;10713;51.912;4.494;2023-03-31T06:07:35;99461.34;;;10.75;100.00
21111;BME280;10713;51.912;4.494;2023-03-31T06:10:00;99440.78;;;10.66;100.00
21111;BME280;10713;51.912;4.494;2023-03-31T06:12:26;99454.94;;;10.65;100.00
21111;BME280;10713;51.912;4.494;2023-03-31T06:14:51;99456.34;;;10.71;100.00
21111;BME280;10713;51.912;4.494;2023-03-31T06:17:17;99451.16;;;10.69;100.00
21111;BME280;10713;51.912;4.494;2023-03-31T06:19:42;99447.47;;;10.72;100.00
21111;BME280;10713;51.912;4.494;2023-03-31T06:22:07;99449.75;;;10.78;100.00
21111;BME280;10713;51.912;4.494;2023-03-31T06:24:33;99454.34;;;10.89;100.00
21111;BME280;10713;51.912;4.494;2023-03-31T06:26:58;99444.19;;;10.82;100.00
21111;BME280;10713;51.912;4.494;2023-03-31T06:29:26;99452.50;;;10.76;100.00
21111;BME280;10713;51.912;4.494;2023-03-31T06:31:51;99439.69;;;10.70;100.00
21111;BME280;10713;51.912;4.494;2023-03-31T06:34:17;99436.28;;;10.68;100.00
21111;BME280;10713;51.912;4.494;2023-03-31T06:36:42;99433.91;;;10.78;100.00
21111;BME280;10713;51.912;4.494;2023-03-31T06:39:07;99436.16;;;10.84;100.00
21111;BME280;10713;51.912;4.494;2023-03-31T06:41:33;99428.72;;;10.91;100.00
21111;BME280;10713;51.912;4.494;2023-03-31T06:43:58;99419.94;;;10.90;100.00
21111;BME280;10713;51.912;4.494;2023-03-31T06:46:23;99425.31;;;10.89;100.00
21111;BME280;10713;51.912;4.494;2023-03-31T06:48:49;99422.94;;;10.84;100.00
21111;BME280;10713;51.912;4.494;2023-03-31T06:51:14;99424.56;;;10.87;100.00
21111;BME280;10713;51.912;4.494;2023-03-31T06:53:40;99412.75;;;10.92;100.00
21111;BME280;10713;51.912;4.494;2023-03-31T06:56:06;99409.88;;;11.10;100.00
21111;BME280;10713;51.912;4.494;2023-03-31T06:58:31;99415.84;;;11.13;100.00
21111;BME280;10713;51.912;4.494;2023-03-31T07:00:57;99408.59;;;11.02;100.00
21111;BME280;10713;51.912;4.494;2023-03-31T07:03:22;99399.53;;;11.07;100.00
21111;BME280;10713;51.912;4.494;2023-03-31T07:05:52;99403.78;;;11.09;100.00
21111;BME280;10713;51.912;4.494;2023-03-31T07:08:18;99406.97;;;11.14;100.00
21111;BME280;10713;51.912;4.494;2023-03-31T07:10:44;99401.28;;;11.20;100.00
21111;BME280;10713;51.912;4.494;2023-03-31T07:13:14;99398.78;;;11.32;100.00
21111;BME280;10713;51.912;4.494;2023-03-31T07:15:40;99395.09;;;11.34;100.00
21111;BME280;10713;51.912;4.494;2023-03-31T07:18:06;99379.81;;;11.39;100.00
21111;BME280;10713;51.912;4.494;2023-03-31T07:20:31;99391.97;;;11.42;100.00
21111;BME280;10713;51.912;4.494;2023-03-31T07:22:57;99389.00;;;11.46;100.00
21111;BME280;10713;51.912;4.494;2023-03-31T07:25:23;99391.16;;;11.54;100.00
21111;BME280;10713;51.912;4.494;2023-03-31T07:27:49;99390.75;;;11.60;100.00
21111;BME280;10713;51.912;4.494;2023-03-31T07:30:17;99386.63;;;11.56;100.00
21111;BME280;10713;51.912;4.494;2023-03-31T07:32:45;99396.78;;;11.62;100.00
21111;BME280;10713;51.912;4.494;2023-03-31T07:35:10;99386.72;;;11.67;100.00
21111;BME280;10713;51.912;4.494;2023-03-31T07:37:37;99386.63;;;11.69;100.00
21111;BME280;10713;51.912;4.494;2023-03-31T07:40:04;99380.63;;;11.80;100.00
21111;BME280;10713;51.912;4.494;2023-03-31T07:42:31;99384.88;;;11.82;100.00
21111;BME280;10713;51.912;4.494;2023-03-31T07:44:56;99375.03;;;11.84;100.00
21111;BME280;10713;51.912;4.494;2023-03-31T07:47:22;99383.06;;;11.83;100.00
21111;BME280;10713;51.912;4.494;2023-03-31T07:49:48;99371.34;;;11.87;100.00
21111;BME280;10713;51.912;4.494;2023-03-31T07:52:14;99364.38;;;11.86;100.00
21111;BME280;10713;51.912;4.494;2023-03-31T07:54:39;99361.63;;;11.87;100.00
21111;BME280;10713;51.912;4.494;2023-03-31T07:57:05;99366.06;;;11.87;100.00
21111;BME280;10713;51.912;4.494;2023-03-31T07:59:33;99350.50;;;11.82;100.00
21111;BME280;10713;51.912;4.494;2023-03-31T08:01:58;99358.31;;;11.84;100.00
21111;BME280;10713;51.912;4.494;2023-03-31T08:04:24;99352.75;;;11.88;100.00
21111;BME280;10713;51.912;4.494;2023-03-31T08:06:49;99355.19;;;11.91;100.00
21111;BME280;10713;51.912;4.494;2023-03-31T08:09:16;99359.84;;;11.88;100.00
21111;BME280;10713;51.912;4.494;2023-03-31T08:11:42;99355.66;;;11.84;100.00
21111;BME280;10713;51.912;4.494;2023-03-31T08:14:07;99353.75;;;11.73;100.00
21111;BME280;10713;51.912;4.494;2023-03-31T08:16:33;99347.75;;;11.84;100.00
21111;BME280;10713;51.912;4.494;2023-03-31T08:18:58;99331.09;;;11.96;100.00
21111;BME280;10713;51.912;4.494;2023-03-31T08:21:23;99321.78;;;11.90;100.00
21111;BME280;10713;51.912;4.494;2023-03-31T08:23:49;99325.47;;;12.01;100.00
21111;BME280;10713;51.912;4.494;2023-03-31T08:26:17;99325.84;;;12.33;100.00
21111;BME280;10713;51.912;4.494;2023-03-31T08:28:42;99327.53;;;12.47;100.00
21111;BME280;10713;51.912;4.494;2023-03-31T08:31:08;99329.13;;;12.73;100.00
21111;BME280;10713;51.912;4.494;2023-03-31T08:33:35;99325.94;;;12.81;100.00
21111;BME280;10713;51.912;4.494;2023-03-31T08:36:06;99316.44;;;13.26;100.00
21111;BME280;10713;51.912;4.494;2023-03-31T08:38:34;99313.97;;;13.47;100.00
21111;BME280;10713;51.912;4.494;2023-03-31T08:41:04;99298.38;;;13.67;100.00
21111;BME280;10713;51.912;4.494;2023-03-31T08:43:40;99305.09;;;13.48;100.00
21111;BME280;10713;51.912;4.494;2023-03-31T08:46:10;99287.16;;;13.63;100.00
21111;BME280;10713;51.912;4.494;2023-03-31T08:48:40;99291.53;;;13.87;100.00
21111;BME280;10713;51.912;4.494;2023-03-31T08:51:25;99300.56;;;13.95;100.00
21111;BME280;10713;51.912;4.494;2023-03-31T08:54:09;99284.28;;;14.56;100.00
21111;BME280;10713;51.912;4.494;2023-03-31T08:56:41;99284.81;;;14.94;100.00
21111;BME280;10713;51.912;4.494;2023-03-31T08:59:34;99271.63;;;15.03;100.00
21111;BME280;10713;51.912;4.494;2023-03-31T09:02:23;99266.38;;;14.81;100.00
21111;BME280;10713;51.912;4.494;2023-03-31T09:05:02;99264.97;;;14.66;100.00
21111;BME280;10713;51.912;4.494;2023-03-31T09:10:37;99259.94;;;14.29;100.00
21111;BME280;10713;51.912;4.494;2023-03-31T09:13:20;99260.44;;;14.00;100.00
21111;BME280;10713;51.912;4.494;2023-03-31T09:20:50;99258.97;;;13.96;100.00
21111;BME280;10713;51.912;4.494;2023-03-31T09:23:35;99271.63;;;13.81;100.00
21111;BME280;10713;51.912;4.494;2023-03-31T09:26:03;99255.47;;;13.73;100.00
21111;BME280;10713;51.912;4.494;2023-03-31T09:28:38;99240.50;;;13.61;100.00
21111;BME280;10713;51.912;4.494;2023-03-31T09:31:12;99234.47;;;13.47;100.00
21111;BME280;10713;51.912;4.494;2023-03-31T09:33:44;99239.06;;;13.57;100.00
21111;BME280;10713;51.912;4.494;2023-03-31T09:36:15;99234.94;;;13.52;100.00
21111;BME280;10713;51.912;4.494;2023-03-31T09:38:42;99222.28;;;13.34;100.00
21111;BME280;10713;51.912;4.494;2023-03-31T09:41:08;99234.44;;;13.36;100.00
21111;BME280;10713;51.912;4.494;2023-03-31T09:43:35;99230.25;;;13.34;100.00
21111;BME280;10713;51.912;4.494;2023-03-31T09:46:03;99219.75;;;13.32;100.00
21111;BME280;10713;51.912;4.494;2023-03-31T09:48:33;99216.13;;;13.33;100.00
21111;BME280;10713;51.912;4.494;2023-03-31T09:51:03;99214.91;;;13.26;100.00
21111;BME280;10713;51.912;4.494;2023-03-31T09:53:37;99217.88;;;13.21;100.00
21111;BME280;10713;51.912;4.494;2023-03-31T09:56:06;99229.06;;;13.14;100.00
21111;BME280;10713;51.912;4.494;2023-03-31T09:58:43;99201.88;;;13.23;100.00
21111;BME280;10713;51.912;4.494;2023-03-31T10:01:11;99212.47;;;13.23;100.00
21111;BME280;10713;51.912;4.494;2023-03-31T10:03:49;99201.78;;;13.36;100.00
21111;BME280;10713;51.912;4.494;2023-03-31T10:06:15;99210.34;;;13.28;100.00
21111;BME280;10713;51.912;4.494;2023-03-31T10:08:46;99208.13;;;12.87;100.00
21111;BME280;10713;51.912;4.494;2023-03-31T10:11:13;99205.75;;;12.95;100.00
21111;BME280;10713;51.912;4.494;2023-03-31T10:16:33;99213.44;;;12.62;100.00
21111;BME280;10713;51.912;4.494;2023-03-31T10:19:33;99210.97;;;12.72;100.00
21111;BME280;10713;51.912;4.494;2023-03-31T10:22:03;99217.72;;;12.76;100.00
21111;BME280;10713;51.912;4.494;2023-03-31T10:24:38;99210.72;;;12.75;100.00
21111;BME280;10713;51.912;4.494;2023-03-31T10:27:05;99193.88;;;13.12;100.00
21111;BME280;10713;51.912;4.494;2023-03-31T10:29:33;99217.03;;;12.85;100.00
21111;BME280;10713;51.912;4.494;2023-03-31T10:32:14;99216.44;;;12.58;100.00
21111;BME280;10713;51.912;4.494;2023-03-31T10:34:42;99222.69;;;12.57;100.00
21111;BME280;10713;51.912;4.494;2023-03-31T10:37:13;99220.66;;;12.60;100.00
21111;BME280;10713;51.912;4.494;2023-03-31T10:39:42;99210.38;;;12.56;100.00
21111;BME280;10713;51.912;4.494;2023-03-31T10:42:08;99209.16;;;12.49;100.00
21111;BME280;10713;51.912;4.494;2023-03-31T10:44:37;99208.84;;;12.53;100.00
21111;BME280;10713;51.912;4.494;2023-03-31T10:49:39;99192.22;;;12.51;100.00
21111;BME280;10713;51.912;4.494;2023-03-31T10:52:17;99191.31;;;12.39;100.00
21111;BME280;10713;51.912;4.494;2023-03-31T10:54:46;99180.81;;;12.86;100.00
21111;BME280;10713;51.912;4.494;2023-03-31T10:57:11;99177.19;;;12.87;100.00
21111;BME280;10713;51.912;4.494;2023-03-31T11:02:38;99175.47;;;12.75;100.00
21111;BME280;10713;51.912;4.494;2023-03-31T11:24:41;99164.00;;;13.10;100.00
21111;BME280;10713;51.912;4.494;2023-03-31T11:32:51;99167.41;;;13.23;100.00
21111;BME280;10713;51.912;4.494;2023-03-31T11:38:41;99157.44;;;13.26;100.00
21111;BME280;10713;51.912;4.494;2023-03-31T11:41:19;99137.84;;;13.40;100.00
21111;BME280;10713;51.912;4.494;2023-03-31T11:43:52;99149.72;;;13.23;100.00
21111;BME280;10713;51.912;4.494;2023-03-31T11:46:23;99148.13;;;13.10;100.00
21111;BME280;10713;51.912;4.494;2023-03-31T11:48:54;99150.28;;;13.04;100.00
21111;BME280;10713;51.912;4.494;2023-03-31T11:53:57;99133.66;;;12.91;100.00
21111;BME280;10713;51.912;4.494;2023-03-31T11:56:30;99145.50;;;12.74;100.00
21111;BME280;10713;51.912;4.494;2023-03-31T11:58:58;99142.50;;;12.68;100.00
21111;BME280;10713;51.912;4.494;2023-03-31T12:06:23;99136.03;;;12.83;100.00
21111;BME280;10713;51.912;4.494;2023-03-31T12:12:29;99131.41;;;12.62;100.00
21111;BME280;10713;51.912;4.494;2023-03-31T12:17:28;99109.38;;;12.62;100.00
21111;BME280;10713;51.912;4.494;2023-03-31T12:19:54;99114.06;;;12.70;100.00
21111;BME280;10713;51.912;4.494;2023-03-31T12:22:25;99117.22;;;12.75;100.00
21111;BME280;10713;51.912;4.494;2023-03-31T12:24:53;99102.88;;;12.66;100.00
21111;BME280;10713;51.912;4.494;2023-03-31T12:27:38;99114.34;;;12.43;100.00
21111;BME280;10713;51.912;4.494;2023-03-31T12:30:12;99102.91;;;12.77;100.00
21111;BME280;10713;51.912;4.494;2023-03-31T12:32:45;99104.72;;;12.42;100.00
21111;BME280;10713;51.912;4.494;2023-03-31T12:35:20;99101.63;;;12.48;100.00
21111;BME280;10713;51.912;4.494;2023-03-31T12:43:05;99086.91;;;12.68;100.00
21111;BME280;10713;51.912;4.494;2023-03-31T12:45:55;99082.94;;;12.84;100.00
21111;BME280;10713;51.912;4.494;2023-03-31T12:48:38;99088.63;;;12.91;100.00
21111;BME280;10713;51.912;4.494;2023-03-31T12:56:23;99069.94;;;12.93;100.00
21111;BME280;10713;51.912;4.494;2023-03-31T12:58:48;99071.53;;;12.95;100.00
21111;BME280;10713;51.912;4.494;2023-03-31T13:08:59;99079.28;;;12.63;100.00
21111;BME280;10713;51.912;4.494;2023-03-31T13:14:02;99075.31;;;12.57;100.00
21111;BME280;10713;51.912;4.494;2023-03-31T13:16:30;99075.31;;;12.57;100.00
21111;BME280;10713;51.912;4.494;2023-03-31T13:18:56;99065.44;;;12.59;100.00
21111;BME280;10713;51.912;4.494;2023-03-31T13:21:23;99072.75;;;12.56;100.00
21111;BME280;10713;51.912;4.494;2023-03-31T13:23:49;99074.28;;;12.47;100.00
21111;BME280;10713;51.912;4.494;2023-03-31T13:34:58;99059.88;;;12.51;100.00
21111;BME280;10713;51.912;4.494;2023-03-31T13:46:11;99056.25;;;12.41;100.00
21111;BME280;10713;51.912;4.494;2023-03-31T14:07:19;99040.72;;;12.36;100.00
21111;BME280;10713;51.912;4.494;2023-03-31T14:09:51;99033.97;;;12.32;100.00
21111;BME280;10713;51.912;4.494;2023-03-31T14:12:32;99040.13;;;12.44;100.00
21111;BME280;10713;51.912;4.494;2023-03-31T14:14:58;99036.81;;;12.53;100.00
21111;BME280;10713;51.912;4.494;2023-03-31T14:17:29;99025.72;;;12.48;100.00
21111;BME280;10713;51.912;4.494;2023-03-31T14:36:29;99019.06;;;12.07;100.00
21111;BME280;10713;51.912;4.494;2023-03-31T14:39:02;99016.28;;;11.98;100.00
21111;BME280;10713;51.912;4.494;2023-03-31T14:41:28;99020.34;;;11.90;100.00
21111;BME280;10713;51.912;4.494;2023-03-31T14:43:56;99021.25;;;12.02;100.00
21111;BME280;10713;51.912;4.494;2023-03-31T14:46:24;99003.00;;;12.10;100.00
21111;BME280;10713;51.912;4.494;2023-03-31T14:48:50;99003.84;;;12.11;100.00
21111;BME280;10713;51.912;4.494;2023-03-31T14:51:22;99005.50;;;12.12;100.00
21111;BME280;10713;51.912;4.494;2023-03-31T14:53:58;99008.78;;;12.15;100.00
21111;BME280;10713;51.912;4.494;2023-03-31T14:56:37;99002.78;;;12.13;100.00
21111;BME280;10713;51.912;4.494;2023-03-31T14:59:04;98999.63;;;12.08;100.00
21111;BME280;10713;51.912;4.494;2023-03-31T15:01:32;98999.03;;;12.16;100.00
21111;BME280;10713;51.912;4.494;2023-03-31T15:04:02;98989.53;;;12.13;100.00
21111;BME280;10713;51.912;4.494;2023-03-31T15:06:31;99000.75;;;11.93;100.00
21111;BME280;10713;51.912;4.494;2023-03-31T15:09:01;98993.72;;;12.05;100.00
21111;BME280;10713;51.912;4.494;2023-03-31T15:11:28;99000.41;;;12.33;100.00
21111;BME280;10713;51.912;4.494;2023-03-31T15:13:55;98987.69;;;12.49;100.00
21111;BME280;10713;51.912;4.494;2023-03-31T15:16:30;98983.88;;;12.18;100.00
21111;BME280;10713;51.912;4.494;2023-03-31T15:18:58;98982.31;;;12.15;100.00
21111;BME280;10713;51.912;4.494;2023-03-31T15:21:26;98972.53;;;12.40;100.00
21111;BME280;10713;51.912;4.494;2023-03-31T15:23:54;98966.06;;;12.55;100.00
21111;BME280;10713;51.912;4.494;2023-03-31T15:26:34;98976.78;;;12.18;100.00
21111;BME280;10713;51.912;4.494;2023-03-31T15:29:16;98974.47;;;12.60;100.00
21111;BME280;10713;51.912;4.494;2023-03-31T15:31:43;98981.19;;;12.31;100.00
21111;BME280;10713;51.912;4.494;2023-03-31T15:34:32;98957.16;;;12.79;100.00
21111;BME280;10713;51.912;4.494;2023-03-31T15:36:59;98963.31;;;12.68;100.00
21111;BME280;10713;51.912;4.494;2023-03-31T15:39:27;98960.66;;;12.68;100.00
21111;BME280;10713;51.912;4.494;2023-03-31T15:41:55;98967.13;;;12.64;100.00
21111;BME280;10713;51.912;4.494;2023-03-31T15:47:15;98965.44;;;11.94;100.00
21111;BME280;10713;51.912;4.494;2023-03-31T15:49:51;98964.38;;;11.97;100.00
21111;BME280;10713;51.912;4.494;2023-03-31T15:52:36;98962.53;;;11.73;100.00
21111;BME280;10713;51.912;4.494;2023-03-31T15:57:49;98961.00;;;11.70;100.00
21111;BME280;10713;51.912;4.494;2023-03-31T16:02:56;98963.72;;;11.69;100.00